createdAt,value
2019-05-28T00:00:15.184Z,99406.35
2019-05-28T00:02:42.444Z,99402.78
2019-05-28T00:05:09.899Z,99401.59
2019-05-28T00:07:37.980Z,99400.91
2019-05-28T00:10:07.129Z,99403.81
2019-05-28T00:12:36.159Z,99399.67
2019-05-28T00:15:05.212Z,99398.20
2019-05-28T00:17:32.811Z,99391.14
2019-05-28T00:20:00.691Z,99392.55
2019-05-28T00:22:27.957Z,99386.61
2019-05-28T00:24:55.213Z,99389.11
2019-05-28T00:27:22.870Z,99388.91
2019-05-28T00:29:50.220Z,99385.58
2019-05-28T00:32:17.475Z,99388.06
2019-05-28T00:34:44.733Z,99387.31
2019-05-28T00:37:12.504Z,99384.17
2019-05-28T00:39:39.852Z,99387.72
2019-05-28T00:42:07.115Z,99388.11
2019-05-28T00:44:34.458Z,99386.64
2019-05-28T00:47:02.122Z,99379.22
2019-05-28T00:49:29.370Z,99375.56
2019-05-28T00:51:56.625Z,99377.15
2019-05-28T00:54:23.877Z,99380.26
2019-05-28T00:56:53.387Z,99381.55
2019-05-28T00:59:21.304Z,99370.86
2019-05-28T01:01:48.701Z,99376.30
2019-05-28T01:04:16.157Z,99366.17
2019-05-28T01:06:44.033Z,99363.91
2019-05-28T01:09:11.337Z,99369.27
2019-05-28T01:11:38.546Z,99367.45
2019-05-28T01:14:06.810Z,99372.55
2019-05-28T01:16:34.469Z,99368.53
2019-05-28T01:19:01.726Z,99358.82
2019-05-28T01:21:29.522Z,99364.19
2019-05-28T01:23:57.050Z,99355.38
2019-05-28T01:26:24.709Z,99355.03
2019-05-28T01:28:52.172Z,99356.19
2019-05-28T01:31:19.418Z,99357.73
2019-05-28T01:33:46.676Z,99350.89
2019-05-28T01:36:14.341Z,99350.45
2019-05-28T01:38:41.588Z,99347.30
2019-05-28T01:41:08.847Z,99348.70
2019-05-28T01:43:36.261Z,99351.54
2019-05-28T01:46:03.894Z,99353.69
2019-05-28T01:48:31.414Z,99354.33
2019-05-28T01:50:58.670Z,99347.83
2019-05-28T01:53:25.922Z,99339.45
2019-05-28T01:55:53.582Z,99338.95
2019-05-28T01:58:20.796Z,99340.09
2019-05-28T02:00:48.094Z,99342.98
2019-05-28T02:03:15.353Z,99344.54
2019-05-28T02:05:43.002Z,99343.48
2019-05-28T02:08:10.414Z,99339.48
2019-05-28T02:10:37.710Z,99333.88
2019-05-28T02:13:04.935Z,99330.22
2019-05-28T02:15:33.764Z,99329.12
2019-05-28T02:18:01.520Z,99325.95
2019-05-28T02:20:28.772Z,99316.58
2019-05-28T02:22:56.030Z,99321.66
2019-05-28T02:25:23.788Z,99324.17
2019-05-28T02:27:51.038Z,99328.56
2019-05-28T02:30:18.655Z,99329.14
2019-05-28T02:32:45.953Z,99327.02
2019-05-28T02:35:15.252Z,99322.61
2019-05-28T02:37:42.610Z,99322.84
2019-05-28T02:40:10.342Z,99327.88
2019-05-28T02:42:37.832Z,99329.59
2019-05-28T02:45:06.372Z,99333.64
2019-05-28T02:47:33.593Z,99335.17
2019-05-28T02:50:00.999Z,99329.59
2019-05-28T02:52:31.846Z,99333.81
2019-05-28T02:54:58.819Z,99332.45
2019-05-28T02:57:28.256Z,99331.60
2019-05-28T02:59:58.238Z,99325.61
2019-05-28T03:02:28.702Z,99319.05
2019-05-28T03:04:57.311Z,99332.33
2019-05-28T03:07:26.494Z,99329.53
2019-05-28T03:09:56.924Z,99337.13
2019-05-28T03:12:24.243Z,99330.33
2019-05-28T03:14:51.515Z,99335.78
2019-05-28T03:17:20.786Z,99338.37
2019-05-28T03:19:49.129Z,99334.62
2019-05-28T03:22:18.830Z,99328.17
2019-05-28T03:24:49.562Z,99329.19
2019-05-28T03:27:16.922Z,99320.97
2019-05-28T03:29:44.679Z,99318.11
2019-05-28T03:32:12.301Z,99318.48
2019-05-28T03:34:42.102Z,99315.42
2019-05-28T03:37:10.687Z,99319.19
2019-05-28T03:39:40.343Z,99311.60
2019-05-28T03:42:07.598Z,99312.02
2019-05-28T03:44:34.952Z,99307.27
2019-05-28T03:47:02.203Z,99317.31
2019-05-28T03:49:29.971Z,99310.36
2019-05-28T03:51:57.230Z,99321.05
2019-05-28T03:54:24.475Z,99314.20
2019-05-28T03:56:51.725Z,99314.42
2019-05-28T03:59:18.981Z,99314.63
2019-05-28T04:01:46.332Z,99314.37
2019-05-28T04:04:13.601Z,99308.14
2019-05-28T04:06:41.243Z,99319.47
2019-05-28T04:09:08.822Z,99320.86
2019-05-28T04:11:44.893Z,99320.65
2019-05-28T04:14:05.561Z,99326.00
2019-05-28T04:16:33.662Z,99323.52
2019-05-28T04:19:02.732Z,99322.47
2019-05-28T04:21:29.982Z,99321.52
2019-05-28T04:23:58.404Z,99331.68
2019-05-28T04:26:25.616Z,99336.97
2019-05-28T04:28:52.868Z,99340.30
2019-05-28T04:31:20.123Z,99335.89
2019-05-28T04:33:47.780Z,99339.45
2019-05-28T04:36:15.134Z,99340.20
2019-05-28T04:38:42.490Z,99341.95
2019-05-28T04:41:09.843Z,99344.80
2019-05-28T04:43:37.094Z,99350.73
2019-05-28T04:46:04.444Z,99349.73
2019-05-28T04:48:31.700Z,99357.23
2019-05-28T04:50:59.460Z,99354.58
2019-05-28T04:53:26.662Z,99349.69
2019-05-28T04:55:53.864Z,99357.58
2019-05-28T04:58:21.229Z,99358.23
2019-05-28T05:00:48.656Z,99359.53
2019-05-28T05:03:16.134Z,99364.17
2019-05-28T05:05:43.454Z,99358.28
2019-05-28T05:08:10.745Z,99356.11
2019-05-28T05:10:38.102Z,99364.15
2019-05-28T05:13:05.355Z,99369.23
2019-05-28T05:15:33.132Z,99370.02
2019-05-28T05:18:00.373Z,99373.82
2019-05-28T05:20:28.892Z,99379.98
2019-05-28T05:22:56.208Z,99380.91
2019-05-28T05:25:23.869Z,99381.77
2019-05-28T05:27:51.293Z,99386.00
2019-05-28T05:30:18.699Z,99396.12
2019-05-28T05:32:45.935Z,99393.70
2019-05-28T05:35:14.051Z,99409.00
2019-05-28T05:37:41.800Z,99410.45
2019-05-28T05:40:09.454Z,99407.52
2019-05-28T05:42:36.712Z,99412.41
2019-05-28T05:45:07.473Z,99411.44
2019-05-28T05:47:34.288Z,99417.92
2019-05-28T05:50:01.755Z,99414.59
2019-05-28T05:52:29.209Z,99414.45
2019-05-28T05:54:56.592Z,99418.86
2019-05-28T05:57:23.841Z,99415.12
2019-05-28T05:59:51.092Z,99415.11
2019-05-28T06:02:18.705Z,99413.70
2019-05-28T06:04:45.935Z,99411.61
2019-05-28T06:07:13.183Z,99411.07
2019-05-28T06:09:40.545Z,99412.36
2019-05-28T06:12:07.764Z,99404.78
2019-05-28T06:14:37.934Z,99404.06
2019-05-28T06:17:04.281Z,99393.69
2019-05-28T06:19:31.708Z,99392.35
2019-05-28T06:21:59.223Z,99387.22
2019-05-28T06:24:26.473Z,99384.02
2019-05-28T06:26:54.280Z,99381.25
2019-05-28T06:29:21.533Z,99380.40
2019-05-28T06:31:48.891Z,99375.42
2019-05-28T06:34:16.245Z,99373.05
2019-05-28T06:36:44.224Z,99378.76
2019-05-28T06:39:11.670Z,99377.75
2019-05-28T06:41:38.859Z,99373.48
2019-05-28T06:44:06.408Z,99377.27
2019-05-28T06:46:33.659Z,99367.77
2019-05-28T06:49:03.893Z,99369.50
2019-05-28T06:51:31.240Z,99371.86
2019-05-28T06:53:59.168Z,99372.95
2019-05-28T06:56:26.444Z,99368.28
2019-05-28T06:58:54.007Z,99373.03
2019-05-28T07:01:21.281Z,99374.52
2019-05-28T07:03:48.945Z,99378.63
2019-05-28T07:06:16.217Z,99377.52
2019-05-28T07:08:43.483Z,99386.77
2019-05-28T07:11:10.739Z,99385.02
2019-05-28T07:13:38.642Z,99384.72
2019-05-28T07:16:06.163Z,99378.73
2019-05-28T07:18:33.646Z,99376.14
2019-05-28T07:21:00.968Z,99373.38
2019-05-28T07:23:28.633Z,99383.33
2019-05-28T07:25:56.101Z,99384.91
2019-05-28T07:28:23.477Z,99388.08
2019-05-28T07:30:50.713Z,99391.19
2019-05-28T07:33:18.505Z,99390.58
2019-05-28T07:35:46.539Z,99391.83
2019-05-28T07:38:13.942Z,99391.41
2019-05-28T07:40:41.603Z,99390.30
2019-05-28T07:43:09.367Z,99392.32
2019-05-28T07:45:36.731Z,99390.64
2019-05-28T07:48:04.003Z,99384.45
2019-05-28T07:50:31.663Z,99385.98
2019-05-28T07:52:58.930Z,99388.25
2019-05-28T07:55:26.556Z,99388.62
2019-05-28T07:57:53.869Z,99388.23
2019-05-28T08:00:42.417Z,99389.59
2019-05-28T08:03:09.989Z,99388.94
2019-05-28T08:05:37.715Z,99384.89
2019-05-28T08:08:07.342Z,99387.34
2019-05-28T08:10:34.602Z,99392.03
2019-05-28T08:13:02.321Z,99383.59
2019-05-28T08:15:29.892Z,99385.90
2019-05-28T08:17:57.299Z,99383.20
2019-05-28T08:20:24.766Z,99386.98
2019-05-28T08:22:52.510Z,99383.80
2019-05-28T08:25:40.639Z,99389.86
2019-05-28T08:27:49.370Z,99389.03
2019-05-28T08:30:16.722Z,99387.98
2019-05-28T08:32:44.322Z,99386.09
2019-05-28T08:35:11.623Z,99388.19
2019-05-28T08:37:38.896Z,99390.46
2019-05-28T08:40:06.670Z,99387.73
2019-05-28T08:42:34.436Z,99388.64
2019-05-28T08:45:01.687Z,99388.12
2019-05-28T08:47:29.353Z,99391.14
2019-05-28T08:49:56.610Z,99384.27
2019-05-28T08:52:24.521Z,99389.02
2019-05-28T08:54:51.856Z,99393.00
2019-05-28T08:57:19.081Z,99406.91
2019-05-28T08:59:46.344Z,99403.20
2019-05-28T09:02:27.340Z,99407.37
2019-05-28T09:04:43.325Z,99410.67
2019-05-28T09:07:10.667Z,99418.56
2019-05-28T09:09:38.025Z,99417.73
2019-05-28T09:12:05.286Z,99421.73
2019-05-28T09:14:54.428Z,99424.94
2019-05-28T09:17:02.200Z,99421.35
2019-05-28T09:19:31.794Z,99424.27
2019-05-28T09:21:59.050Z,99424.66
2019-05-28T09:24:27.903Z,99432.60
2019-05-28T09:26:55.567Z,99429.10
2019-05-28T09:29:22.977Z,99441.92
2019-05-28T09:31:50.434Z,99438.53
2019-05-28T09:34:18.098Z,99449.63
2019-05-28T09:36:45.379Z,99439.16
2019-05-28T09:39:12.839Z,99444.13
2019-05-28T09:41:40.305Z,99443.75
2019-05-28T09:44:08.170Z,99448.80
2019-05-28T09:46:35.431Z,99451.23
2019-05-28T09:49:03.144Z,99447.18
2019-05-28T09:51:30.447Z,99451.06
2019-05-28T09:53:58.313Z,99448.14
2019-05-28T09:56:25.569Z,99448.62
2019-05-28T09:58:52.829Z,99449.95
2019-05-28T10:01:20.417Z,99446.64
2019-05-28T10:03:48.065Z,99450.22
2019-05-28T10:06:17.565Z,99447.81
2019-05-28T10:08:44.519Z,99447.73
2019-05-28T10:11:11.784Z,99448.34
2019-05-28T10:13:41.605Z,99450.70
2019-05-28T10:16:08.452Z,99443.93
2019-05-28T10:18:35.714Z,99448.50
2019-05-28T10:21:16.951Z,99434.98
2019-05-28T10:23:32.280Z,99436.73
2019-05-28T10:25:59.474Z,99439.92
2019-05-28T10:28:26.747Z,99444.91
2019-05-28T10:30:54.392Z,99441.49
2019-05-28T10:33:21.564Z,99444.77
2019-05-28T10:35:48.747Z,99438.61
2019-05-28T10:38:17.163Z,99441.20
2019-05-28T10:40:45.031Z,99447.03
2019-05-28T10:43:12.339Z,99443.08
2019-05-28T10:45:39.969Z,99442.16
2019-05-28T10:48:07.238Z,99451.02
2019-05-28T10:50:34.711Z,99459.29
2019-05-28T10:53:01.939Z,99456.59
2019-05-28T10:55:29.103Z,99470.46
2019-05-28T10:57:56.283Z,99469.27
2019-05-28T11:00:24.266Z,99468.54
2019-05-28T11:02:51.457Z,99463.87
2019-05-28T11:05:19.953Z,99462.27
2019-05-28T11:07:47.153Z,99463.83
2019-05-28T11:10:23.593Z,99465.63
2019-05-28T11:12:45.456Z,99463.27
2019-05-28T11:15:13.830Z,99471.73
2019-05-28T11:17:41.059Z,99464.19
2019-05-28T11:20:09.549Z,99469.43
2019-05-28T11:22:36.902Z,99467.00
2019-05-28T11:25:06.533Z,99470.34
2019-05-28T11:27:33.812Z,99470.42
2019-05-28T11:30:01.529Z,99472.39
2019-05-28T11:32:28.914Z,99475.89
2019-05-28T11:34:56.478Z,99471.53
2019-05-28T11:37:23.724Z,99467.95
2019-05-28T11:39:51.232Z,99471.27
2019-05-28T11:42:18.539Z,99463.30
2019-05-28T11:44:46.517Z,99465.25
2019-05-28T11:47:13.902Z,99466.83
2019-05-28T11:49:41.245Z,99468.29
2019-05-28T11:52:08.611Z,99473.07
2019-05-28T11:54:36.298Z,99477.27
2019-05-28T11:57:03.616Z,99484.30
2019-05-28T11:59:30.974Z,99485.82
2019-05-28T12:01:58.226Z,99481.23
2019-05-28T12:04:25.782Z,99485.94
2019-05-28T12:06:53.653Z,99477.94
2019-05-28T12:09:21.015Z,99478.83
2019-05-28T12:11:48.258Z,99490.44
2019-05-28T12:14:15.516Z,99492.51
2019-05-28T12:16:42.878Z,99494.78
2019-05-28T12:19:10.536Z,99501.15
2019-05-28T12:21:38.199Z,99496.92
2019-05-28T12:24:05.454Z,99506.47
2019-05-28T12:26:32.805Z,99500.94
2019-05-28T12:29:00.065Z,99506.66
2019-05-28T12:31:28.747Z,99515.06
2019-05-28T12:33:55.998Z,99517.06
2019-05-28T12:36:23.223Z,99520.03
2019-05-28T12:38:50.632Z,99526.98
2019-05-28T12:41:18.190Z,99530.88
2019-05-28T12:43:45.563Z,99532.80
2019-05-28T12:46:12.761Z,99534.80
2019-05-28T12:48:39.954Z,99537.19
2019-05-28T12:51:07.193Z,99545.86
2019-05-28T12:53:49.464Z,99539.39
2019-05-28T12:56:03.636Z,99542.09
2019-05-28T12:58:42.343Z,99559.34
2019-05-28T13:01:00.399Z,99565.64
2019-05-28T13:03:27.622Z,99565.44
2019-05-28T13:05:55.440Z,99572.28
2019-05-28T13:08:22.696Z,99572.41
2019-05-28T13:10:50.179Z,99576.15
2019-05-28T13:13:17.471Z,99590.69
2019-05-28T13:15:45.199Z,99593.40
2019-05-28T13:18:12.443Z,99606.03
2019-05-28T13:20:39.750Z,99603.63
2019-05-28T13:23:07.574Z,99605.86
2019-05-28T13:25:34.763Z,99606.94
2019-05-28T13:28:01.966Z,99610.55
2019-05-28T13:30:29.201Z,99611.84
2019-05-28T13:32:56.790Z,99608.55
2019-05-28T13:35:24.116Z,99611.20
2019-05-28T13:37:51.322Z,99610.22
2019-05-28T13:40:19.497Z,99612.52
2019-05-28T13:42:46.694Z,99608.94
2019-05-28T13:45:14.594Z,99603.41
2019-05-28T13:47:42.114Z,99605.89
2019-05-28T13:50:11.158Z,99607.72
2019-05-28T13:52:38.460Z,99607.50
2019-05-28T13:55:05.913Z,99618.58
2019-05-28T13:57:33.483Z,99624.11
2019-05-28T14:00:00.681Z,99624.52
2019-05-28T14:02:27.917Z,99626.61
2019-05-28T14:04:55.094Z,99630.51
2019-05-28T14:07:22.630Z,99632.17
2019-05-28T14:09:49.860Z,99633.14
2019-05-28T14:12:17.082Z,99636.54
2019-05-28T14:14:44.333Z,99644.41
2019-05-28T14:17:11.526Z,99640.94
2019-05-28T14:19:38.880Z,99647.70
2019-05-28T14:22:06.327Z,99646.86
2019-05-28T14:24:33.715Z,99649.66
2019-05-28T14:27:01.150Z,99654.44
2019-05-28T14:29:28.827Z,99651.52
2019-05-28T14:31:56.075Z,99656.58
2019-05-28T14:34:24.147Z,99656.72
2019-05-28T14:36:51.612Z,99657.55
2019-05-28T14:39:19.277Z,99656.41
2019-05-28T14:41:46.742Z,99658.59
2019-05-28T14:44:14.090Z,99656.70
2019-05-28T14:46:41.315Z,99663.07
2019-05-28T14:49:08.919Z,99667.45
2019-05-28T14:51:36.272Z,99665.36
2019-05-28T14:54:03.474Z,99671.45
2019-05-28T14:56:30.783Z,99666.13
2019-05-28T14:58:58.547Z,99673.16
2019-05-28T15:01:25.817Z,99672.34
2019-05-28T15:03:55.112Z,99675.04
2019-05-28T15:06:22.664Z,99679.27
2019-05-28T15:08:49.911Z,99684.27
2019-05-28T15:11:17.267Z,99680.70
2019-05-28T15:13:44.521Z,99684.45
2019-05-28T15:16:11.774Z,99680.09
2019-05-28T15:18:39.228Z,99678.03
2019-05-28T15:21:06.587Z,99677.63
2019-05-28T15:23:34.358Z,99682.17
2019-05-28T15:26:01.808Z,99691.66
2019-05-28T15:28:29.170Z,99697.09
2019-05-28T15:30:56.359Z,99701.96
2019-05-28T15:33:23.585Z,99694.84
2019-05-28T15:35:50.879Z,99696.48
2019-05-28T15:38:18.094Z,99700.56
2019-05-28T15:40:45.524Z,99700.41
2019-05-28T15:43:12.732Z,99709.00
2019-05-28T15:45:39.974Z,99710.59
2019-05-28T15:48:07.233Z,99716.33
2019-05-28T15:50:34.457Z,99711.77
2019-05-28T15:53:02.252Z,99709.95
2019-05-28T15:55:29.480Z,99710.12
2019-05-28T15:57:56.710Z,99708.80
2019-05-28T16:00:24.324Z,99716.22
2019-05-28T16:02:51.948Z,99719.87
2019-05-28T16:05:19.134Z,99718.77
2019-05-28T16:07:46.331Z,99724.09
2019-05-28T16:10:14.772Z,99728.83
2019-05-28T16:12:42.399Z,99737.56
2019-05-28T16:15:10.435Z,99742.24
2019-05-28T16:17:37.701Z,99744.59
2019-05-28T16:20:05.154Z,99751.17
2019-05-28T16:22:32.404Z,99750.36
2019-05-28T16:24:59.652Z,99752.27
2019-05-28T16:27:26.872Z,99767.13
2019-05-28T16:29:54.328Z,99766.72
2019-05-28T16:32:27.899Z,99768.09
2019-05-28T16:35:03.567Z,99767.47
2019-05-28T16:37:31.706Z,99771.92
2019-05-28T16:40:14.783Z,99777.22
2019-05-28T16:42:34.523Z,99776.45
2019-05-28T16:45:06.299Z,99775.94
2019-05-28T16:47:34.312Z,99785.20
2019-05-28T16:50:02.381Z,99788.71
2019-05-28T16:52:30.680Z,99794.06
2019-05-28T16:54:58.923Z,99798.10
2019-05-28T16:57:26.821Z,99807.16
2019-05-28T16:59:54.772Z,99808.50
2019-05-28T17:02:22.657Z,99810.97
2019-05-28T17:04:52.959Z,99808.86
2019-05-28T17:07:20.573Z,99816.68
2019-05-28T17:09:54.133Z,99821.97
2019-05-28T17:12:21.949Z,99819.50
2019-05-28T17:14:52.311Z,99825.16
2019-05-28T17:17:20.096Z,99825.52
2019-05-28T17:19:48.126Z,99829.56
2019-05-28T17:22:25.576Z,99834.05
2019-05-28T17:24:53.563Z,99839.70
2019-05-28T17:27:20.905Z,99841.48
2019-05-28T17:29:50.699Z,99843.13
2019-05-28T17:32:18.684Z,99847.48
2019-05-28T17:34:46.280Z,99846.47
2019-05-28T17:37:13.654Z,99851.75
2019-05-28T17:39:41.589Z,99859.77
2019-05-28T17:42:09.196Z,99860.66
2019-05-28T17:44:36.796Z,99866.09
2019-05-28T17:47:06.215Z,99869.47
2019-05-28T17:49:36.045Z,99872.89
2019-05-28T17:52:03.406Z,99881.94
2019-05-28T17:54:30.797Z,99886.02
2019-05-28T17:56:58.344Z,99885.00
2019-05-28T17:59:26.191Z,99894.28
2019-05-28T18:01:53.637Z,99896.95
2019-05-28T18:04:21.029Z,99907.09
2019-05-28T18:06:48.441Z,99909.84
2019-05-28T18:09:16.366Z,99916.34
2019-05-28T18:11:46.489Z,99922.50
2019-05-28T18:14:14.157Z,99923.80
2019-05-28T18:16:42.217Z,99929.44
2019-05-28T18:19:09.701Z,99927.92
2019-05-28T18:21:37.313Z,99928.84
2019-05-28T18:24:05.281Z,99933.94
2019-05-28T18:26:33.097Z,99934.05
2019-05-28T18:29:03.134Z,99939.91
2019-05-28T18:31:30.565Z,99942.22
2019-05-28T18:33:58.590Z,99941.81
2019-05-28T18:36:27.242Z,99949.45
2019-05-28T18:38:55.164Z,99952.98
2019-05-28T18:41:23.211Z,99953.70
2019-05-28T18:43:52.829Z,99959.14
2019-05-28T18:46:20.170Z,99960.82
2019-05-28T18:48:47.645Z,99967.34
2019-05-28T18:51:15.289Z,99965.77
2019-05-28T18:53:44.240Z,99970.19
2019-05-28T18:56:17.473Z,99982.14
2019-05-28T18:58:41.352Z,99979.98
2019-05-28T19:01:09.458Z,99987.41
2019-05-28T19:03:40.281Z,99988.94
2019-05-28T19:06:07.837Z,99997.33
2019-05-28T19:08:35.524Z,99996.27
2019-05-28T19:11:02.911Z,99991.95
2019-05-28T19:13:30.666Z,100002.33
2019-05-28T19:15:58.229Z,100007.02
2019-05-28T19:18:25.663Z,100009.52
2019-05-28T19:20:52.942Z,100013.94
2019-05-28T19:23:20.908Z,100013.73
2019-05-28T19:25:48.648Z,100021.02
2019-05-28T19:28:16.132Z,100023.27
2019-05-28T19:30:43.795Z,100028.70
2019-05-28T19:33:11.665Z,100032.54
2019-05-28T19:35:39.127Z,100036.16
2019-05-28T19:38:06.585Z,100037.59
2019-05-28T19:40:37.488Z,100039.48
2019-05-28T19:43:05.494Z,100051.31
2019-05-28T19:45:33.389Z,100053.77
2019-05-28T19:48:01.131Z,100065.33
2019-05-28T19:50:28.686Z,100072.99
2019-05-28T19:52:57.701Z,100074.45
2019-05-28T19:55:25.234Z,100075.14
2019-05-28T19:57:52.683Z,100083.79
2019-05-28T20:00:28.868Z,100085.09
2019-05-28T20:03:05.799Z,100090.41
2019-05-28T20:05:34.195Z,100097.86
2019-05-28T20:08:01.895Z,100099.98
2019-05-28T20:10:31.498Z,100109.00
2019-05-28T20:12:58.850Z,100120.48
2019-05-28T20:15:27.268Z,100124.41
2019-05-28T20:17:54.791Z,100131.73
2019-05-28T20:20:22.451Z,100129.61
2019-05-28T20:22:50.192Z,100134.63
2019-05-28T20:25:18.066Z,100143.34
2019-05-28T20:27:47.614Z,100145.87
2019-05-28T20:30:15.550Z,100155.31
2019-05-28T20:32:42.902Z,100156.66
2019-05-28T20:35:10.873Z,100153.66
2019-05-28T20:37:38.675Z,100158.48
2019-05-28T20:40:07.945Z,100167.39
2019-05-28T20:42:36.251Z,100167.91
2019-05-28T20:45:06.672Z,100166.94
2019-05-28T20:47:34.182Z,100170.99
2019-05-28T20:50:04.368Z,100172.58
2019-05-28T20:52:31.974Z,100177.98
2019-05-28T20:54:59.270Z,100180.23
2019-05-28T20:57:26.623Z,100184.75
2019-05-28T20:59:54.385Z,100184.72
2019-05-28T21:02:22.357Z,100181.80
2019-05-28T21:04:50.330Z,100187.56
2019-05-28T21:07:17.868Z,100193.88
2019-05-28T21:09:45.377Z,100197.88
2019-05-28T21:12:15.782Z,100195.91
2019-05-28T21:14:43.343Z,100200.23
2019-05-28T21:17:10.965Z,100194.11
2019-05-28T21:19:38.739Z,100202.75
2019-05-28T21:22:08.375Z,100204.88
2019-05-28T21:24:35.937Z,100205.30
2019-05-28T21:27:03.599Z,100215.11
2019-05-28T21:29:31.058Z,100216.97
2019-05-28T21:31:58.764Z,100220.37
2019-05-28T21:34:26.919Z,100223.58
2019-05-28T21:36:54.929Z,100233.89
2019-05-28T21:39:22.419Z,100236.78
2019-05-28T21:41:49.886Z,100241.59
2019-05-28T21:44:20.407Z,100241.54
2019-05-28T21:46:48.682Z,100247.71
2019-05-28T21:49:16.238Z,100256.35
2019-05-28T21:51:43.802Z,100262.03
2019-05-28T21:54:11.123Z,100260.77
2019-05-28T21:56:38.510Z,100271.36
2019-05-28T21:59:06.177Z,100275.78
2019-05-28T22:01:36.295Z,100280.20
2019-05-28T22:04:03.920Z,100282.57
2019-05-28T22:06:31.309Z,100287.52
2019-05-28T22:08:59.797Z,100285.89
2019-05-28T22:11:27.251Z,100291.84
2019-05-28T22:13:54.503Z,100290.53
2019-05-28T22:16:21.860Z,100297.60
2019-05-28T22:18:49.933Z,100294.61
2019-05-28T22:21:17.596Z,100301.54
2019-05-28T22:23:44.951Z,100306.44
2019-05-28T22:26:12.309Z,100312.88
2019-05-28T22:28:39.971Z,100305.66
2019-05-28T22:31:08.121Z,100316.11
2019-05-28T22:33:35.743Z,100319.58
2019-05-28T22:36:03.537Z,100320.02
2019-05-28T22:38:31.360Z,100320.44
2019-05-28T22:40:59.052Z,100325.20
2019-05-28T22:43:31.728Z,100324.42
2019-05-28T22:45:58.962Z,100331.78
2019-05-28T22:48:27.817Z,100334.34
2019-05-28T22:50:55.285Z,100340.85
2019-05-28T22:53:22.843Z,100337.02
2019-05-28T22:55:50.706Z,100340.47
2019-05-28T22:58:19.299Z,100344.41
2019-05-28T23:00:46.859Z,100347.47
2019-05-28T23:03:14.513Z,100344.84
2019-05-28T23:05:42.391Z,100348.34
2019-05-28T23:08:10.083Z,100344.04
2019-05-28T23:10:37.819Z,100345.37
2019-05-28T23:13:06.973Z,100348.81
2019-05-28T23:15:35.064Z,100356.52
2019-05-28T23:18:04.495Z,100355.69
2019-05-28T23:20:32.425Z,100363.02
2019-05-28T23:23:00.978Z,100366.06
2019-05-28T23:25:30.663Z,100372.97
2019-05-28T23:27:58.124Z,100372.55
2019-05-28T23:30:25.904Z,100375.19
2019-05-28T23:32:53.544Z,100378.63
2019-05-28T23:35:21.111Z,100380.78
2019-05-28T23:37:48.389Z,100381.66
2019-05-28T23:40:16.343Z,100387.69
2019-05-28T23:42:43.798Z,100382.97
2019-05-28T23:45:11.824Z,100385.11
2019-05-28T23:47:39.835Z,100389.47
2019-05-28T23:50:10.586Z,100392.93
2019-05-28T23:52:37.833Z,100393.80
2019-05-28T23:55:09.896Z,100398.10
2019-05-28T23:57:37.774Z,100400.67
